RYR4DY EGPH-EPPO
Flight info
| Callsign | RYR4DY |
|---|---|
| Flight time | 1h 59m |
| Altitude | 37000 |
| Route | TLA6C TLA Y96 OTBUN DCT SURAT DCT PETIL DCT SONAL M602 VAVUN L996 DENKO DENK3M |
| Aircraft | B738/M-SDE2E3FGHIRWXY/LB1 |
Departure
| Time | 2026-05-08 18:23 |
|---|---|
| Airport | Edinburgh Airport (EGPH) |
Arrival
| Time | 2026-05-08 20:23 |
|---|---|
| Airport | Poznań-Ławica Airport (EPPO) |
| Time | Latitude | Longitude | Altitude | Speed | Heading |
|---|---|---|---|---|---|
| 2026-05-08 17:32 | 55.94836 | -3.35805 | 113 ft | 0 kts | 208° |
| 2026-05-08 18:13 | 55.94845 | -3.35795 | 112 ft | 4 kts | 209° |
| 2026-05-08 18:13 | 55.94869 | -3.35772 | 111 ft | 4 kts | 209° |
| 2026-05-08 18:13 | 55.94889 | -3.35751 | 112 ft | 4 kts | 231° |
| 2026-05-08 18:14 | 55.94894 | -3.35717 | 111 ft | 4 kts | 301° |
| 2026-05-08 18:14 | 55.94878 | -3.35679 | 111 ft | 4 kts | 303° |
| 2026-05-08 18:14 | 55.94874 | -3.35670 | 111 ft | 2 kts | 298° |
| 2026-05-08 18:18 | 55.94877 | -3.35679 | 115 ft | 3 kts | 298° |
| 2026-05-08 18:18 | 55.94892 | -3.35728 | 113 ft | 6 kts | 298° |
| 2026-05-08 18:19 | 55.94918 | -3.35812 | 115 ft | 9 kts | 298° |
| 2026-05-08 18:19 | 55.94979 | -3.35858 | 114 ft | 12 kts | 11° |
| 2026-05-08 18:19 | 55.95040 | -3.35835 | 115 ft | 7 kts | 330° |
| 2026-05-08 18:19 | 55.95071 | -3.35910 | 113 ft | 9 kts | 304° |
| 2026-05-08 18:20 | 55.95100 | -3.36022 | 113 ft | 12 kts | 295° |
| 2026-05-08 18:20 | 55.95131 | -3.36136 | 114 ft | 6 kts | 304° |
| 2026-05-08 18:20 | 55.95173 | -3.36142 | 112 ft | 9 kts | 33° |
| 2026-05-08 18:20 | 55.95221 | -3.36023 | 113 ft | 15 kts | 59° |
| 2026-05-08 18:21 | 55.95284 | -3.35835 | 111 ft | 19 kts | 59° |
| 2026-05-08 18:21 | 55.95352 | -3.35640 | 113 ft | 18 kts | 58° |
| 2026-05-08 18:21 | 55.95402 | -3.35497 | 115 ft | 12 kts | 58° |
| 2026-05-08 18:21 | 55.95443 | -3.35399 | 114 ft | 8 kts | 26° |
| 2026-05-08 18:22 | 55.95490 | -3.35430 | 114 ft | 7 kts | 327° |
| 2026-05-08 18:22 | 55.95536 | -3.35484 | 111 ft | 9 kts | 327° |
| 2026-05-08 18:22 | 55.95572 | -3.35542 | 112 ft | 6 kts | 286° |
| 2026-05-08 18:22 | 55.95554 | -3.35614 | 111 ft | 8 kts | 239° |
| 2026-05-08 18:23 | 55.95456 | -3.35904 | 110 ft | 60 kts | 239° |
| 2026-05-08 18:23 | 55.95122 | -3.36890 | 113 ft | 123 kts | 239° |
| 2026-05-08 18:23 | 55.94606 | -3.38405 | 351 ft | 150 kts | 239° |
| 2026-05-08 18:23 | 55.94051 | -3.40028 | 955 ft | 158 kts | 240° |
| 2026-05-08 18:24 | 55.93453 | -3.41713 | 1631 ft | 162 kts | 242° |
| 2026-05-08 18:24 | 55.92854 | -3.43411 | 2386 ft | 161 kts | 241° |
| 2026-05-08 18:24 | 55.92238 | -3.45216 | 2829 ft | 185 kts | 241° |
| 2026-05-08 18:24 | 55.91522 | -3.47313 | 3068 ft | 211 kts | 241° |
| 2026-05-08 18:25 | 55.90721 | -3.49647 | 3376 ft | 229 kts | 240° |
| 2026-05-08 18:25 | 55.89893 | -3.52132 | 3863 ft | 242 kts | 242° |
| 2026-05-08 18:25 | 55.88963 | -3.54730 | 4475 ft | 253 kts | 229° |
| 2026-05-08 18:25 | 55.87437 | -3.56281 | 5326 ft | 261 kts | 193° |
| 2026-05-08 18:26 | 55.85622 | -3.56188 | 6250 ft | 264 kts | 169° |
| 2026-05-08 18:26 | 55.83840 | -3.55271 | 7042 ft | 269 kts | 165° |
| 2026-05-08 18:26 | 55.82061 | -3.54202 | 7829 ft | 271 kts | 164° |
| 2026-05-08 18:26 | 55.80273 | -3.53103 | 8645 ft | 273 kts | 164° |
| 2026-05-08 18:27 | 55.78471 | -3.52004 | 9464 ft | 275 kts | 165° |
| 2026-05-08 18:27 | 55.77271 | -3.51280 | 10016 ft | 276 kts | 165° |
| 2026-05-08 18:27 | 55.74804 | -3.49810 | 10590 ft | 296 kts | 165° |
| 2026-05-08 18:27 | 55.72781 | -3.48621 | 10866 ft | 314 kts | 165° |
| 2026-05-08 18:28 | 55.70740 | -3.46950 | 11437 ft | 329 kts | 145° |
| 2026-05-08 18:28 | 55.69287 | -3.43757 | 12198 ft | 340 kts | 120° |
| 2026-05-08 18:28 | 55.68533 | -3.39794 | 12942 ft | 349 kts | 104° |
| 2026-05-08 18:28 | 55.68267 | -3.35466 | 13632 ft | 359 kts | 92° |
| 2026-05-08 18:29 | 55.68446 | -3.31022 | 14342 ft | 364 kts | 86° |
| 2026-05-08 18:29 | 55.68723 | -3.26527 | 15019 ft | 369 kts | 85° |
| 2026-05-08 18:29 | 55.69026 | -3.21981 | 15713 ft | 374 kts | 85° |
| 2026-05-08 18:29 | 55.69333 | -3.17385 | 16419 ft | 378 kts | 86° |
| 2026-05-08 18:30 | 55.69625 | -3.12720 | 17101 ft | 383 kts | 86° |
| 2026-05-08 18:30 | 55.69907 | -3.07998 | 17787 ft | 388 kts | 87° |
| 2026-05-08 18:30 | 55.70186 | -3.03222 | 18457 ft | 392 kts | 87° |
| 2026-05-08 18:30 | 55.70468 | -2.98378 | 19037 ft | 397 kts | 87° |
| 2026-05-08 18:31 | 55.70752 | -2.93482 | 19584 ft | 401 kts | 87° |
| 2026-05-08 18:31 | 55.71039 | -2.88535 | 20172 ft | 406 kts | 87° |
| 2026-05-08 18:31 | 55.71327 | -2.83536 | 20738 ft | 410 kts | 87° |
| 2026-05-08 18:31 | 55.71618 | -2.78480 | 21298 ft | 414 kts | 87° |
| 2026-05-08 18:32 | 55.71909 | -2.73388 | 21874 ft | 417 kts | 87° |
| 2026-05-08 18:32 | 55.72201 | -2.68242 | 22417 ft | 422 kts | 88° |
| 2026-05-08 18:32 | 55.72494 | -2.63036 | 22933 ft | 426 kts | 88° |
| 2026-05-08 18:32 | 55.72788 | -2.57782 | 23453 ft | 431 kts | 88° |
| 2026-05-08 18:33 | 55.73082 | -2.52470 | 23918 ft | 435 kts | 88° |
| 2026-05-08 18:33 | 55.73378 | -2.47110 | 24341 ft | 439 kts | 88° |
| 2026-05-08 18:33 | 55.73673 | -2.41697 | 24774 ft | 442 kts | 88° |
| 2026-05-08 18:33 | 55.73968 | -2.36246 | 25182 ft | 446 kts | 88° |
| 2026-05-08 18:34 | 55.74264 | -2.30740 | 25588 ft | 450 kts | 88° |
| 2026-05-08 18:34 | 55.74560 | -2.25195 | 25984 ft | 454 kts | 88° |
| 2026-05-08 18:34 | 55.74855 | -2.19603 | 26396 ft | 456 kts | 87° |
| 2026-05-08 18:34 | 55.75146 | -2.14061 | 26818 ft | 458 kts | 87° |
| 2026-05-08 18:35 | 55.75439 | -2.08404 | 27183 ft | 462 kts | 87° |
| 2026-05-08 18:35 | 55.75732 | -2.02696 | 27554 ft | 466 kts | 87° |
| 2026-05-08 18:35 | 55.76015 | -1.97144 | 27899 ft | 469 kts | 87° |
| 2026-05-08 18:35 | 55.76307 | -1.91348 | 28262 ft | 473 kts | 87° |
| 2026-05-08 18:36 | 55.76599 | -1.85516 | 28613 ft | 476 kts | 87° |
| 2026-05-08 18:36 | 55.76889 | -1.79647 | 28956 ft | 479 kts | 87° |
| 2026-05-08 18:36 | 55.77179 | -1.73738 | 29299 ft | 482 kts | 87° |
| 2026-05-08 18:36 | 55.77468 | -1.67777 | 29608 ft | 486 kts | 87° |
| 2026-05-08 18:37 | 55.77756 | -1.61774 | 29958 ft | 488 kts | 87° |
| 2026-05-08 18:37 | 55.78042 | -1.55752 | 30307 ft | 490 kts | 87° |
| 2026-05-08 18:37 | 55.78327 | -1.49695 | 30552 ft | 494 kts | 87° |
| 2026-05-08 18:37 | 55.78611 | -1.43601 | 30785 ft | 497 kts | 87° |
| 2026-05-08 18:38 | 55.78893 | -1.37466 | 31031 ft | 500 kts | 87° |
| 2026-05-08 18:38 | 55.79174 | -1.31296 | 31270 ft | 502 kts | 87° |
| 2026-05-08 18:38 | 55.79453 | -1.25097 | 31529 ft | 504 kts | 87° |
| 2026-05-08 18:38 | 55.79730 | -1.18886 | 31858 ft | 504 kts | 87° |
| 2026-05-08 18:39 | 55.80004 | -1.12668 | 32213 ft | 504 kts | 87° |
| 2026-05-08 18:39 | 55.80274 | -1.06468 | 32556 ft | 503 kts | 86° |
| 2026-05-08 18:39 | 55.80541 | -1.00263 | 32880 ft | 504 kts | 86° |
| 2026-05-08 18:39 | 55.80796 | -0.94267 | 33149 ft | 505 kts | 86° |
| 2026-05-08 18:40 | 55.81057 | -0.88032 | 33438 ft | 506 kts | 86° |
| 2026-05-08 18:40 | 55.81316 | -0.81796 | 33753 ft | 506 kts | 86° |
| 2026-05-08 18:40 | 55.81571 | -0.75564 | 34062 ft | 506 kts | 86° |
| 2026-05-08 18:40 | 55.81823 | -0.69315 | 34322 ft | 506 kts | 86° |
| 2026-05-08 18:41 | 55.82072 | -0.63076 | 34645 ft | 505 kts | 86° |
| 2026-05-08 18:41 | 55.82316 | -0.56874 | 35012 ft | 502 kts | 86° |
| 2026-05-08 18:41 | 55.82557 | -0.50700 | 35389 ft | 498 kts | 87° |
| 2026-05-08 18:41 | 55.82792 | -0.44566 | 35725 ft | 496 kts | 87° |
| 2026-05-08 18:42 | 55.83024 | -0.38454 | 36042 ft | 494 kts | 87° |
| 2026-05-08 18:42 | 55.83251 | -0.32370 | 36368 ft | 492 kts | 87° |
| 2026-05-08 18:42 | 55.83475 | -0.26312 | 36702 ft | 489 kts | 87° |
| 2026-05-08 18:42 | 55.83694 | -0.20287 | 37045 ft | 487 kts | 88° |
| 2026-05-08 18:43 | 55.83907 | -0.14356 | 37150 ft | 489 kts | 88° |
| 2026-05-08 18:43 | 55.84121 | -0.08289 | 37143 ft | 491 kts | 88° |
| 2026-05-08 18:43 | 55.84533 | 0.03566 | 37133 ft | 484 kts | 87° |
| 2026-05-08 18:44 | 55.84933 | 0.15438 | 37139 ft | 478 kts | 88° |
| 2026-05-08 18:44 | 55.85319 | 0.27204 | 37152 ft | 476 kts | 88° |
| 2026-05-08 18:45 | 55.85694 | 0.39054 | 37163 ft | 484 kts | 88° |
| 2026-05-08 18:45 | 55.86064 | 0.51068 | 37154 ft | 487 kts | 88° |
| 2026-05-08 18:46 | 55.86424 | 0.63134 | 37152 ft | 488 kts | 88° |
| 2026-05-08 18:46 | 55.86773 | 0.75199 | 37154 ft | 488 kts | 88° |
| 2026-05-08 18:47 | 55.87109 | 0.87247 | 37160 ft | 486 kts | 88° |
| 2026-05-08 18:47 | 55.87432 | 0.99260 | 37158 ft | 485 kts | 88° |
| 2026-05-08 18:48 | 55.87736 | 1.11005 | 37159 ft | 483 kts | 88° |
| 2026-05-08 18:48 | 55.88034 | 1.22918 | 37164 ft | 480 kts | 88° |
| 2026-05-08 18:49 | 55.88318 | 1.34783 | 37167 ft | 479 kts | 88° |
| 2026-05-08 18:49 | 55.88591 | 1.46616 | 37170 ft | 477 kts | 88° |
| 2026-05-08 18:50 | 55.88851 | 1.58422 | 37171 ft | 476 kts | 88° |
| 2026-05-08 18:50 | 55.89100 | 1.70211 | 37163 ft | 476 kts | 88° |
| 2026-05-08 18:51 | 55.89337 | 1.81993 | 37182 ft | 476 kts | 88° |
| 2026-05-08 18:51 | 55.89564 | 1.93785 | 37180 ft | 477 kts | 89° |
| 2026-05-08 18:52 | 55.89776 | 2.05402 | 37184 ft | 478 kts | 89° |
| 2026-05-08 18:52 | 55.89979 | 2.17163 | 37183 ft | 479 kts | 89° |
| 2026-05-08 18:53 | 55.90173 | 2.29028 | 37178 ft | 479 kts | 89° |
| 2026-05-08 18:53 | 55.90355 | 2.40902 | 37182 ft | 480 kts | 89° |
| 2026-05-08 18:54 | 55.90527 | 2.52786 | 37187 ft | 480 kts | 89° |
| 2026-05-08 18:54 | 55.90687 | 2.64669 | 37186 ft | 479 kts | 89° |
| 2026-05-08 18:55 | 55.90904 | 2.82465 | 37182 ft | 478 kts | 89° |
| 2026-05-08 18:56 | 55.91035 | 2.94304 | 37189 ft | 477 kts | 89° |
| 2026-05-08 18:56 | 55.91153 | 3.05912 | 37189 ft | 476 kts | 89° |
| 2026-05-08 18:57 | 55.91261 | 3.17709 | 37189 ft | 475 kts | 89° |
| 2026-05-08 18:57 | 55.91357 | 3.29483 | 37190 ft | 475 kts | 89° |
| 2026-05-08 18:58 | 55.91444 | 3.41237 | 37184 ft | 474 kts | 89° |
| 2026-05-08 18:58 | 55.91531 | 3.52976 | 37187 ft | 473 kts | 88° |
| 2026-05-08 18:59 | 55.91763 | 3.64697 | 37198 ft | 473 kts | 87° |
| 2026-05-08 18:59 | 55.91990 | 3.74422 | 37199 ft | 472 kts | 87° |
| 2026-05-08 19:00 | 55.92240 | 3.86125 | 37206 ft | 472 kts | 88° |
| 2026-05-08 19:00 | 55.92463 | 3.97820 | 37211 ft | 472 kts | 88° |
| 2026-05-08 19:01 | 55.92666 | 4.09304 | 37221 ft | 472 kts | 88° |
| 2026-05-08 19:01 | 55.92861 | 4.21001 | 37213 ft | 472 kts | 88° |
| 2026-05-08 19:02 | 55.93046 | 4.32691 | 37218 ft | 472 kts | 88° |
| 2026-05-08 19:02 | 55.93221 | 4.44381 | 37217 ft | 471 kts | 88° |
| 2026-05-08 19:03 | 55.93384 | 4.56056 | 37222 ft | 471 kts | 88° |
| 2026-05-08 19:03 | 55.93536 | 4.67731 | 37222 ft | 471 kts | 88° |
| 2026-05-08 19:04 | 55.93677 | 4.79394 | 37224 ft | 470 kts | 88° |
| 2026-05-08 19:04 | 55.93809 | 4.91044 | 37225 ft | 470 kts | 88° |
| 2026-05-08 19:05 | 55.93739 | 5.02472 | 37211 ft | 469 kts | 98° |
| 2026-05-08 19:05 | 55.92604 | 5.13910 | 37226 ft | 468 kts | 101° |
| 2026-05-08 19:06 | 55.91348 | 5.25303 | 37231 ft | 468 kts | 101° |
| 2026-05-08 19:06 | 55.90116 | 5.36699 | 37229 ft | 468 kts | 101° |
| 2026-05-08 19:07 | 55.88906 | 5.48102 | 37226 ft | 468 kts | 101° |
| 2026-05-08 19:07 | 55.87697 | 5.59498 | 37226 ft | 468 kts | 101° |
| 2026-05-08 19:08 | 55.86478 | 5.70899 | 37231 ft | 469 kts | 101° |
| 2026-05-08 19:08 | 55.85246 | 5.82304 | 37229 ft | 469 kts | 101° |
| 2026-05-08 19:09 | 55.84002 | 5.93706 | 37235 ft | 470 kts | 101° |
| 2026-05-08 19:09 | 55.82768 | 6.04909 | 37235 ft | 470 kts | 101° |
| 2026-05-08 19:10 | 55.81501 | 6.16320 | 37235 ft | 471 kts | 101° |
| 2026-05-08 19:10 | 55.80220 | 6.27737 | 37232 ft | 471 kts | 101° |
| 2026-05-08 19:11 | 55.78931 | 6.39142 | 37231 ft | 471 kts | 101° |
| 2026-05-08 19:11 | 55.77630 | 6.50544 | 37236 ft | 471 kts | 101° |
| 2026-05-08 19:12 | 55.76328 | 6.61858 | 37240 ft | 471 kts | 101° |
| 2026-05-08 19:12 | 55.75006 | 6.73238 | 37242 ft | 471 kts | 101° |
| 2026-05-08 19:13 | 55.73676 | 6.84602 | 37242 ft | 470 kts | 101° |
| 2026-05-08 19:13 | 55.72337 | 6.95939 | 37237 ft | 469 kts | 101° |
| 2026-05-08 19:14 | 55.71018 | 7.07012 | 37246 ft | 468 kts | 101° |
| 2026-05-08 19:14 | 55.69663 | 7.18294 | 37247 ft | 467 kts | 101° |
| 2026-05-08 19:15 | 55.68302 | 7.29537 | 37247 ft | 466 kts | 101° |
| 2026-05-08 19:15 | 55.66932 | 7.40759 | 37249 ft | 465 kts | 102° |
| 2026-05-08 19:16 | 55.65555 | 7.51950 | 37243 ft | 465 kts | 102° |
| 2026-05-08 19:16 | 55.64169 | 7.63117 | 37244 ft | 464 kts | 102° |
| 2026-05-08 19:17 | 55.62776 | 7.74255 | 37246 ft | 463 kts | 102° |
| 2026-05-08 19:17 | 55.61373 | 7.85385 | 37253 ft | 463 kts | 102° |
| 2026-05-08 19:18 | 55.59962 | 7.96491 | 37253 ft | 463 kts | 102° |
| 2026-05-08 19:18 | 55.58565 | 8.07401 | 37247 ft | 463 kts | 102° |
| 2026-05-08 19:19 | 55.57135 | 8.18485 | 37247 ft | 462 kts | 103° |
| 2026-05-08 19:19 | 55.55695 | 8.29558 | 37245 ft | 462 kts | 103° |
| 2026-05-08 19:20 | 55.54255 | 8.40552 | 37248 ft | 462 kts | 103° |
| 2026-05-08 19:20 | 55.52796 | 8.51600 | 37235 ft | 462 kts | 103° |
| 2026-05-08 19:21 | 55.51327 | 8.62650 | 37234 ft | 462 kts | 103° |
| 2026-05-08 19:21 | 55.49848 | 8.73684 | 37240 ft | 462 kts | 103° |
| 2026-05-08 19:22 | 55.48359 | 8.84713 | 37245 ft | 462 kts | 103° |
| 2026-05-08 19:22 | 55.46860 | 8.95729 | 37270 ft | 462 kts | 103° |
| 2026-05-08 19:23 | 55.45380 | 9.06533 | 37266 ft | 462 kts | 104° |
| 2026-05-08 19:23 | 55.43862 | 9.17537 | 37255 ft | 462 kts | 104° |
| 2026-05-08 19:24 | 55.42335 | 9.28524 | 37264 ft | 462 kts | 104° |
| 2026-05-08 19:24 | 55.40798 | 9.39501 | 37266 ft | 462 kts | 104° |
| 2026-05-08 19:25 | 55.39252 | 9.50461 | 37265 ft | 461 kts | 104° |
| 2026-05-08 19:25 | 55.37697 | 9.61409 | 37267 ft | 461 kts | 104° |
| 2026-05-08 19:26 | 55.36134 | 9.72343 | 37263 ft | 461 kts | 104° |
| 2026-05-08 19:26 | 55.34560 | 9.83271 | 37263 ft | 461 kts | 104° |
| 2026-05-08 19:27 | 55.32978 | 9.94179 | 37271 ft | 461 kts | 104° |
| 2026-05-08 19:27 | 55.31414 | 10.04886 | 37268 ft | 461 kts | 105° |
| 2026-05-08 19:28 | 55.29811 | 10.15787 | 37266 ft | 461 kts | 105° |
| 2026-05-08 19:28 | 55.28201 | 10.26665 | 37274 ft | 461 kts | 105° |
| 2026-05-08 19:29 | 55.26582 | 10.37531 | 37284 ft | 461 kts | 105° |
| 2026-05-08 19:29 | 55.24951 | 10.48395 | 37279 ft | 460 kts | 105° |
| 2026-05-08 19:30 | 55.23314 | 10.59236 | 37273 ft | 460 kts | 105° |
| 2026-05-08 19:30 | 55.21667 | 10.70063 | 37282 ft | 460 kts | 105° |
| 2026-05-08 19:31 | 55.20011 | 10.80879 | 37268 ft | 460 kts | 105° |
| 2026-05-08 19:31 | 55.18345 | 10.91691 | 37272 ft | 460 kts | 105° |
| 2026-05-08 19:32 | 55.16703 | 11.02276 | 37270 ft | 460 kts | 105° |
| 2026-05-08 19:32 | 55.15020 | 11.13058 | 37279 ft | 459 kts | 106° |
| 2026-05-08 19:33 | 55.13328 | 11.23826 | 37273 ft | 459 kts | 106° |
| 2026-05-08 19:33 | 55.11627 | 11.34581 | 37273 ft | 459 kts | 106° |
| 2026-05-08 19:34 | 55.09917 | 11.45326 | 37273 ft | 459 kts | 106° |
| 2026-05-08 19:34 | 55.08197 | 11.56066 | 37278 ft | 459 kts | 106° |
| 2026-05-08 19:35 | 55.06470 | 11.66780 | 37282 ft | 459 kts | 106° |
| 2026-05-08 19:35 | 55.04734 | 11.77486 | 37280 ft | 459 kts | 106° |
| 2026-05-08 19:36 | 55.03001 | 11.88104 | 37276 ft | 458 kts | 107° |
| 2026-05-08 19:36 | 55.01247 | 11.98782 | 37278 ft | 458 kts | 107° |
| 2026-05-08 19:37 | 54.99516 | 12.09262 | 37275 ft | 458 kts | 107° |
| 2026-05-08 19:37 | 54.97745 | 12.19911 | 37277 ft | 458 kts | 107° |
| 2026-05-08 19:38 | 54.95968 | 12.30538 | 37267 ft | 457 kts | 107° |
| 2026-05-08 19:38 | 54.94182 | 12.41151 | 37268 ft | 457 kts | 107° |
| 2026-05-08 19:39 | 54.92388 | 12.51753 | 37268 ft | 457 kts | 107° |
| 2026-05-08 19:39 | 54.90587 | 12.62338 | 37254 ft | 456 kts | 107° |
| 2026-05-08 19:40 | 54.88743 | 12.72880 | 37258 ft | 456 kts | 112° |
| 2026-05-08 19:40 | 54.85653 | 12.82379 | 37256 ft | 452 kts | 131° |
| 2026-05-08 19:41 | 54.81358 | 12.90293 | 37268 ft | 451 kts | 135° |
| 2026-05-08 19:41 | 54.77055 | 12.98201 | 37274 ft | 451 kts | 135° |
| 2026-05-08 19:42 | 54.72848 | 13.06043 | 37273 ft | 452 kts | 134° |
| 2026-05-08 19:42 | 54.68557 | 13.14020 | 37273 ft | 453 kts | 135° |
| 2026-05-08 19:43 | 54.64250 | 13.21985 | 37264 ft | 454 kts | 135° |
| 2026-05-08 19:43 | 54.59770 | 13.29632 | 37262 ft | 452 kts | 144° |
| 2026-05-08 19:44 | 54.54370 | 13.35025 | 37279 ft | 448 kts | 156° |
| 2026-05-08 19:44 | 54.48762 | 13.39731 | 37257 ft | 449 kts | 156° |
| 2026-05-08 19:45 | 54.43167 | 13.44509 | 37265 ft | 449 kts | 155° |
| 2026-05-08 19:45 | 54.38529 | 13.48513 | 37255 ft | 449 kts | 155° |
| 2026-05-08 19:46 | 54.33258 | 13.54300 | 37272 ft | 452 kts | 144° |
| 2026-05-08 19:46 | 54.25802 | 13.64198 | 37255 ft | 452 kts | 144° |
| 2026-05-08 19:47 | 54.20804 | 13.70716 | 37244 ft | 452 kts | 145° |
| 2026-05-08 19:47 | 54.15784 | 13.77164 | 37251 ft | 451 kts | 145° |
| 2026-05-08 19:48 | 54.10761 | 13.83578 | 37254 ft | 451 kts | 145° |
| 2026-05-08 19:48 | 54.05730 | 13.89984 | 37251 ft | 451 kts | 145° |
| 2026-05-08 19:49 | 54.00703 | 13.96370 | 37249 ft | 451 kts | 145° |
| 2026-05-08 19:49 | 53.95766 | 14.02623 | 37240 ft | 451 kts | 145° |
| 2026-05-08 19:50 | 53.90733 | 14.08979 | 37228 ft | 451 kts | 146° |
| 2026-05-08 19:50 | 53.85698 | 14.15318 | 37242 ft | 451 kts | 146° |
| 2026-05-08 19:51 | 53.80659 | 14.21644 | 37239 ft | 451 kts | 146° |
| 2026-05-08 19:51 | 53.76104 | 14.28843 | 37235 ft | 446 kts | 129° |
| 2026-05-08 19:52 | 53.74434 | 14.33071 | 37212 ft | 434 kts | 120° |
| 2026-05-08 19:52 | 53.73163 | 14.37629 | 37033 ft | 426 kts | 115° |
| 2026-05-08 19:52 | 53.71985 | 14.42271 | 36175 ft | 435 kts | 114° |
| 2026-05-08 19:52 | 53.70783 | 14.47019 | 35440 ft | 442 kts | 114° |
| 2026-05-08 19:53 | 53.69552 | 14.51806 | 34632 ft | 449 kts | 114° |
| 2026-05-08 19:53 | 53.68293 | 14.56614 | 34322 ft | 444 kts | 115° |
| 2026-05-08 19:53 | 53.67040 | 14.61359 | 33815 ft | 442 kts | 115° |
| 2026-05-08 19:53 | 53.65783 | 14.66074 | 33300 ft | 440 kts | 115° |
| 2026-05-08 19:54 | 53.64525 | 14.70754 | 32893 ft | 436 kts | 115° |
| 2026-05-08 19:54 | 53.63282 | 14.75367 | 32512 ft | 431 kts | 115° |
| 2026-05-08 19:54 | 53.62046 | 14.79945 | 32107 ft | 428 kts | 115° |
| 2026-05-08 19:54 | 53.60814 | 14.84503 | 31725 ft | 425 kts | 115° |
| 2026-05-08 19:55 | 53.59597 | 14.89003 | 31342 ft | 421 kts | 115° |
| 2026-05-08 19:55 | 53.58385 | 14.93476 | 30972 ft | 418 kts | 115° |
| 2026-05-08 19:55 | 53.57183 | 14.97908 | 30608 ft | 415 kts | 115° |
| 2026-05-08 19:55 | 53.56023 | 15.02175 | 30262 ft | 412 kts | 115° |
| 2026-05-08 19:56 | 53.54833 | 15.06545 | 29834 ft | 409 kts | 115° |
| 2026-05-08 19:56 | 53.53653 | 15.10872 | 29409 ft | 405 kts | 115° |
| 2026-05-08 19:56 | 53.52484 | 15.15150 | 29051 ft | 400 kts | 115° |
| 2026-05-08 19:56 | 53.51326 | 15.19383 | 28670 ft | 397 kts | 115° |
| 2026-05-08 19:57 | 53.50178 | 15.23568 | 28302 ft | 393 kts | 115° |
| 2026-05-08 19:57 | 53.49035 | 15.27716 | 27934 ft | 389 kts | 117° |
| 2026-05-08 19:57 | 53.47607 | 15.31527 | 27556 ft | 383 kts | 133° |
| 2026-05-08 19:57 | 53.45674 | 15.34519 | 27220 ft | 376 kts | 147° |
| 2026-05-08 19:58 | 53.43415 | 15.36639 | 26858 ft | 369 kts | 159° |
| 2026-05-08 19:58 | 53.41080 | 15.38385 | 26505 ft | 366 kts | 159° |
| 2026-05-08 19:58 | 53.38760 | 15.40112 | 26146 ft | 364 kts | 159° |
| 2026-05-08 19:58 | 53.36457 | 15.41841 | 25805 ft | 361 kts | 158° |
| 2026-05-08 19:59 | 53.34177 | 15.43572 | 25458 ft | 359 kts | 158° |
| 2026-05-08 19:59 | 53.31911 | 15.45301 | 25119 ft | 357 kts | 158° |
| 2026-05-08 19:59 | 53.29663 | 15.47015 | 24775 ft | 355 kts | 158° |
| 2026-05-08 19:59 | 53.27423 | 15.48722 | 24438 ft | 353 kts | 158° |
| 2026-05-08 20:00 | 53.25205 | 15.50443 | 24115 ft | 351 kts | 154° |
| 2026-05-08 20:00 | 53.23192 | 15.52735 | 23794 ft | 352 kts | 139° |
| 2026-05-08 20:00 | 53.21542 | 15.55772 | 23300 ft | 355 kts | 127° |
| 2026-05-08 20:00 | 53.20102 | 15.59079 | 23062 ft | 351 kts | 127° |
| 2026-05-08 20:01 | 53.18675 | 15.62368 | 22780 ft | 348 kts | 127° |
| 2026-05-08 20:01 | 53.17257 | 15.65628 | 22513 ft | 347 kts | 127° |
| 2026-05-08 20:01 | 53.15834 | 15.68882 | 22243 ft | 348 kts | 127° |
| 2026-05-08 20:01 | 53.14398 | 15.72153 | 21986 ft | 351 kts | 127° |
| 2026-05-08 20:02 | 53.12953 | 15.75432 | 21721 ft | 351 kts | 127° |
| 2026-05-08 20:02 | 53.11512 | 15.78691 | 21457 ft | 349 kts | 127° |
| 2026-05-08 20:02 | 53.10077 | 15.81931 | 21197 ft | 347 kts | 127° |
| 2026-05-08 20:02 | 53.08645 | 15.85156 | 20939 ft | 346 kts | 128° |
| 2026-05-08 20:03 | 53.07217 | 15.88368 | 20679 ft | 344 kts | 128° |
| 2026-05-08 20:03 | 53.05795 | 15.91560 | 20426 ft | 343 kts | 128° |
| 2026-05-08 20:03 | 53.04377 | 15.94741 | 20173 ft | 342 kts | 127° |
| 2026-05-08 20:03 | 53.02981 | 15.97867 | 19945 ft | 341 kts | 128° |
| 2026-05-08 20:04 | 53.01618 | 16.00916 | 19711 ft | 337 kts | 128° |
| 2026-05-08 20:04 | 53.00224 | 16.04029 | 19398 ft | 335 kts | 128° |
| 2026-05-08 20:04 | 52.98845 | 16.07108 | 19088 ft | 333 kts | 128° |
| 2026-05-08 20:04 | 52.97465 | 16.10183 | 18767 ft | 331 kts | 128° |
| 2026-05-08 20:05 | 52.96093 | 16.13236 | 18439 ft | 330 kts | 128° |
| 2026-05-08 20:05 | 52.94723 | 16.16281 | 18069 ft | 328 kts | 128° |
| 2026-05-08 20:05 | 52.93360 | 16.19307 | 17707 ft | 327 kts | 127° |
| 2026-05-08 20:05 | 52.92005 | 16.22313 | 17363 ft | 325 kts | 127° |
| 2026-05-08 20:06 | 52.90658 | 16.25297 | 17057 ft | 322 kts | 127° |
| 2026-05-08 20:06 | 52.89318 | 16.28262 | 16738 ft | 320 kts | 127° |
| 2026-05-08 20:06 | 52.87986 | 16.31206 | 16413 ft | 318 kts | 127° |
| 2026-05-08 20:06 | 52.86663 | 16.34127 | 16097 ft | 317 kts | 127° |
| 2026-05-08 20:07 | 52.85342 | 16.37039 | 15768 ft | 315 kts | 128° |
| 2026-05-08 20:07 | 52.84031 | 16.39927 | 15457 ft | 314 kts | 128° |
| 2026-05-08 20:07 | 52.82722 | 16.42806 | 15145 ft | 312 kts | 128° |
| 2026-05-08 20:07 | 52.81420 | 16.45667 | 14836 ft | 311 kts | 128° |
| 2026-05-08 20:08 | 52.80123 | 16.48516 | 14523 ft | 310 kts | 128° |
| 2026-05-08 20:08 | 52.78828 | 16.51355 | 14213 ft | 309 kts | 128° |
| 2026-05-08 20:08 | 52.77535 | 16.54185 | 13893 ft | 308 kts | 128° |
| 2026-05-08 20:08 | 52.76246 | 16.57006 | 13546 ft | 307 kts | 128° |
| 2026-05-08 20:09 | 52.74962 | 16.59812 | 13220 ft | 305 kts | 127° |
| 2026-05-08 20:09 | 52.73685 | 16.62598 | 12902 ft | 304 kts | 127° |
| 2026-05-08 20:09 | 52.72414 | 16.65371 | 12587 ft | 302 kts | 127° |
| 2026-05-08 20:09 | 52.71148 | 16.68128 | 12278 ft | 300 kts | 127° |
| 2026-05-08 20:10 | 52.69890 | 16.70864 | 11968 ft | 299 kts | 127° |
| 2026-05-08 20:10 | 52.68639 | 16.73584 | 11672 ft | 297 kts | 127° |
| 2026-05-08 20:10 | 52.67393 | 16.76289 | 11371 ft | 296 kts | 127° |
| 2026-05-08 20:10 | 52.66153 | 16.78981 | 11080 ft | 294 kts | 127° |
| 2026-05-08 20:11 | 52.64917 | 16.81659 | 10775 ft | 293 kts | 127° |
| 2026-05-08 20:11 | 52.63684 | 16.84326 | 10475 ft | 292 kts | 127° |
| 2026-05-08 20:11 | 52.62458 | 16.86977 | 10284 ft | 290 kts | 127° |
| 2026-05-08 20:11 | 52.61245 | 16.89598 | 10136 ft | 285 kts | 127° |
| 2026-05-08 20:12 | 52.60035 | 16.92208 | 9763 ft | 287 kts | 127° |
| 2026-05-08 20:12 | 52.58830 | 16.94805 | 9458 ft | 285 kts | 127° |
| 2026-05-08 20:12 | 52.57630 | 16.97389 | 9163 ft | 283 kts | 127° |
| 2026-05-08 20:12 | 52.56440 | 16.99949 | 8875 ft | 281 kts | 127° |
| 2026-05-08 20:13 | 52.55299 | 17.02402 | 8604 ft | 279 kts | 127° |
| 2026-05-08 20:13 | 52.54126 | 17.04921 | 8324 ft | 277 kts | 127° |
| 2026-05-08 20:13 | 52.52960 | 17.07421 | 8040 ft | 275 kts | 127° |
| 2026-05-08 20:13 | 52.51802 | 17.09902 | 7763 ft | 273 kts | 127° |
| 2026-05-08 20:14 | 52.50652 | 17.12365 | 7482 ft | 271 kts | 127° |
| 2026-05-08 20:14 | 52.49507 | 17.14815 | 7206 ft | 270 kts | 127° |
| 2026-05-08 20:14 | 52.48366 | 17.17256 | 6842 ft | 271 kts | 127° |
| 2026-05-08 20:14 | 52.47214 | 17.19717 | 6586 ft | 269 kts | 127° |
| 2026-05-08 20:15 | 52.46082 | 17.22131 | 6398 ft | 264 kts | 127° |
| 2026-05-08 20:15 | 52.44994 | 17.24446 | 6267 ft | 256 kts | 127° |
| 2026-05-08 20:15 | 52.43922 | 17.26721 | 6147 ft | 248 kts | 128° |
| 2026-05-08 20:15 | 52.42616 | 17.28463 | 6014 ft | 241 kts | 159° |
| 2026-05-08 20:16 | 52.40983 | 17.28835 | 5772 ft | 238 kts | 186° |
| 2026-05-08 20:16 | 52.39381 | 17.28230 | 5543 ft | 235 kts | 198° |
| 2026-05-08 20:16 | 52.37829 | 17.27397 | 5295 ft | 234 kts | 199° |
| 2026-05-08 20:16 | 52.36291 | 17.26526 | 5049 ft | 233 kts | 204° |
| 2026-05-08 20:17 | 52.35050 | 17.24899 | 4772 ft | 230 kts | 238° |
| 2026-05-08 20:17 | 52.34557 | 17.22483 | 4557 ft | 224 kts | 268° |
| 2026-05-08 20:17 | 52.34761 | 17.19998 | 4335 ft | 220 kts | 287° |
| 2026-05-08 20:17 | 52.35221 | 17.17629 | 4105 ft | 217 kts | 289° |
| 2026-05-08 20:18 | 52.35693 | 17.15318 | 3903 ft | 211 kts | 289° |
| 2026-05-08 20:18 | 52.36147 | 17.13067 | 3653 ft | 205 kts | 289° |
| 2026-05-08 20:18 | 52.36586 | 17.10893 | 3447 ft | 198 kts | 289° |
| 2026-05-08 20:18 | 52.37004 | 17.08788 | 3229 ft | 191 kts | 290° |
| 2026-05-08 20:19 | 52.37438 | 17.06775 | 3043 ft | 183 kts | 291° |
| 2026-05-08 20:19 | 52.37833 | 17.04871 | 2947 ft | 173 kts | 290° |
| 2026-05-08 20:19 | 52.38202 | 17.02975 | 2743 ft | 176 kts | 289° |
| 2026-05-08 20:19 | 52.38566 | 17.01073 | 2498 ft | 174 kts | 289° |
| 2026-05-08 20:20 | 52.38923 | 16.99203 | 2264 ft | 171 kts | 289° |
| 2026-05-08 20:20 | 52.39274 | 16.97366 | 2033 ft | 168 kts | 289° |
| 2026-05-08 20:20 | 52.39619 | 16.95563 | 1793 ft | 163 kts | 289° |
| 2026-05-08 20:20 | 52.39947 | 16.93848 | 1584 ft | 151 kts | 289° |
| 2026-05-08 20:21 | 52.40261 | 16.92211 | 1381 ft | 153 kts | 288° |
| 2026-05-08 20:21 | 52.40575 | 16.90572 | 1169 ft | 149 kts | 288° |
| 2026-05-08 20:21 | 52.40882 | 16.88977 | 955 ft | 145 kts | 288° |
| 2026-05-08 20:21 | 52.41183 | 16.87408 | 753 ft | 144 kts | 287° |
| 2026-05-08 20:22 | 52.41488 | 16.85830 | 570 ft | 145 kts | 287° |
| 2026-05-08 20:22 | 52.41792 | 16.84248 | 351 ft | 146 kts | 286° |
| 2026-05-08 20:22 | 52.42083 | 16.82732 | 286 ft | 125 kts | 288° |
| 2026-05-08 20:22 | 52.42228 | 16.81983 | 289 ft | 84 kts | 287° |
| 2026-05-08 20:23 | 52.42288 | 16.81330 | 293 ft | 16 kts | 257° |
| 2026-05-08 20:23 | 52.42271 | 16.81206 | 289 ft | 9 kts | 257° |
| 2026-05-08 20:23 | 52.42248 | 16.81155 | 287 ft | 7 kts | 202° |
| 2026-05-08 20:23 | 52.42204 | 16.81210 | 287 ft | 12 kts | 108° |
| 2026-05-08 20:24 | 52.42174 | 16.81360 | 287 ft | 16 kts | 108° |
| 2026-05-08 20:24 | 52.42139 | 16.81542 | 290 ft | 17 kts | 108° |
| 2026-05-08 20:24 | 52.42104 | 16.81721 | 287 ft | 16 kts | 108° |
| 2026-05-08 20:24 | 52.42071 | 16.81893 | 291 ft | 16 kts | 106° |
| 2026-05-08 20:25 | 52.42040 | 16.82067 | 291 ft | 17 kts | 108° |
| 2026-05-08 20:25 | 52.42000 | 16.82273 | 290 ft | 21 kts | 107° |
| 2026-05-08 20:25 | 52.41957 | 16.82498 | 289 ft | 20 kts | 107° |
| 2026-05-08 20:25 | 52.41915 | 16.82717 | 287 ft | 20 kts | 107° |
| 2026-05-08 20:26 | 52.41880 | 16.82892 | 287 ft | 8 kts | 111° |
| 2026-05-08 20:26 | 52.41833 | 16.82909 | 287 ft | 8 kts | 197° |
| 2026-05-08 20:26 | 52.41769 | 16.82876 | 287 ft | 11 kts | 198° |
| 2026-05-08 20:26 | 52.41700 | 16.82842 | 287 ft | 9 kts | 188° |
| 2026-05-08 20:27 | 52.41658 | 16.82901 | 287 ft | 9 kts | 104° |
| 2026-05-08 20:27 | 52.41645 | 16.82987 | 287 ft | 6 kts | 104° |
| 2026-05-08 20:27 | 52.41643 | 16.83002 | 287 ft | 1 kts | 104° |
| 2026-05-08 20:27 | 52.41641 | 16.83015 | 287 ft | 3 kts | 104° |
| 2026-05-08 20:28 | 52.41626 | 16.83064 | 287 ft | 6 kts | 143° |
| 2026-05-08 20:28 | 52.41588 | 16.83062 | 287 ft | 6 kts | 192° |
| 2026-05-08 20:28 | 52.41569 | 16.83054 | 287 ft | 0 kts | 193° |
| 2026-05-08 20:29 | 52.41573 | 16.82986 | 290 ft | 0 kts | 192° |
| 2026-05-08 20:33 | 52.41577 | 16.82987 | 291 ft | 0 kts | 192° |